createdAt,value
2018-03-19T00:02:13.020Z,99883.00
2018-03-19T00:04:42.235Z,99877.11
2018-03-19T00:07:11.309Z,99882.27
2018-03-19T00:09:41.165Z,99878.08
2018-03-19T00:12:10.278Z,99883.09
2018-03-19T00:14:39.365Z,99886.33
2018-03-19T00:17:08.483Z,99879.97
2018-03-19T00:19:37.574Z,99882.51
2018-03-19T00:22:06.669Z,99886.05
2018-03-19T00:24:35.758Z,99886.37
2018-03-19T00:27:04.864Z,99884.32
2018-03-19T00:29:33.989Z,99881.02
2018-03-19T00:32:03.842Z,99882.25
2018-03-19T00:34:32.950Z,99881.09
2018-03-19T00:37:02.052Z,99880.09
2018-03-19T00:39:31.161Z,99877.55
2018-03-19T00:42:00.253Z,99882.09
2018-03-19T00:44:29.379Z,99884.33
2018-03-19T00:46:59.234Z,99881.78
2018-03-19T00:49:28.350Z,99886.59
2018-03-19T00:51:57.458Z,99877.96
2018-03-19T00:54:26.558Z,99884.39
2018-03-19T00:56:55.648Z,99877.84
2018-03-19T00:59:24.769Z,99879.36
2018-03-19T01:01:54.621Z,99882.25
2018-03-19T01:04:24.504Z,99874.46
2018-03-19T01:06:54.371Z,99876.09
2018-03-19T01:09:23.449Z,99881.48
2018-03-19T01:11:52.567Z,99877.43
2018-03-19T01:14:21.655Z,99878.23
2018-03-19T01:16:50.766Z,99875.19
2018-03-19T01:19:19.857Z,99871.41
2018-03-19T01:21:48.995Z,99874.03
2018-03-19T01:24:18.851Z,99870.91
2018-03-19T01:26:47.969Z,99870.84
2018-03-19T01:29:17.046Z,99873.58
2018-03-19T01:31:46.151Z,99863.16
2018-03-19T01:34:15.248Z,99867.63
2018-03-19T01:36:44.326Z,99871.83
2018-03-19T01:39:13.439Z,99865.57
2018-03-19T01:41:42.526Z,99863.14
2018-03-19T01:44:12.415Z,99868.08
2018-03-19T01:46:41.503Z,99864.73
2018-03-19T01:49:10.612Z,99863.04
2018-03-19T01:51:39.696Z,99869.28
2018-03-19T01:54:08.798Z,99860.14
2018-03-19T01:56:37.894Z,99859.14
2018-03-19T01:59:07.017Z,99854.71
2018-03-19T02:01:36.107Z,99859.61
2018-03-19T02:04:05.226Z,99857.64
2018-03-19T02:06:34.328Z,99853.67
2018-03-19T02:09:03.430Z,99863.02
2018-03-19T02:11:32.528Z,99854.80
2018-03-19T02:14:01.618Z,99855.07
2018-03-19T02:16:30.722Z,99857.84
2018-03-19T02:19:00.626Z,99854.73
2018-03-19T02:21:29.713Z,99851.25
2018-03-19T02:23:58.810Z,99854.98
2018-03-19T02:26:27.922Z,99852.14
2018-03-19T02:28:57.011Z,99858.88
2018-03-19T02:31:26.118Z,99852.25
2018-03-19T02:33:55.198Z,99853.53
2018-03-19T02:36:24.318Z,99852.64
2018-03-19T02:38:54.177Z,99858.58
2018-03-19T02:41:23.254Z,99849.17
2018-03-19T02:43:52.370Z,99856.34
2018-03-19T02:46:21.481Z,99855.87
2018-03-19T02:48:50.578Z,99859.93
2018-03-19T02:51:19.695Z,99861.51
2018-03-19T02:53:48.811Z,99858.58
2018-03-19T02:56:19.438Z,99862.52
2018-03-19T02:58:49.334Z,99863.83
2018-03-19T03:01:18.424Z,99858.42
2018-03-19T03:03:47.535Z,99867.98
2018-03-19T03:06:16.666Z,99863.59
2018-03-19T03:08:45.771Z,99862.28
2018-03-19T03:11:14.873Z,99859.51
2018-03-19T03:13:43.962Z,99860.66
2018-03-19T03:16:13.078Z,99865.83
2018-03-19T03:18:42.196Z,99861.78
2018-03-19T03:21:11.352Z,99863.59
2018-03-19T03:23:40.406Z,99865.36
2018-03-19T03:26:10.262Z,99862.05
2018-03-19T03:28:39.377Z,99863.25
2018-03-19T03:31:08.466Z,99865.83
2018-03-19T03:33:37.562Z,99858.39
2018-03-19T03:36:06.676Z,99862.05
2018-03-19T03:38:35.770Z,99861.63
2018-03-19T03:41:04.857Z,99865.05
2018-03-19T03:43:33.961Z,99865.48
2018-03-19T03:46:03.063Z,99867.41
2018-03-19T03:48:32.162Z,99866.75
2018-03-19T03:51:01.268Z,99868.26
2018-03-19T03:53:30.385Z,99865.17
2018-03-19T03:56:00.261Z,99859.51
2018-03-19T03:58:29.350Z,99866.79
2018-03-19T04:00:58.476Z,99867.10
2018-03-19T04:03:27.556Z,99864.87
2018-03-19T04:05:56.658Z,99866.52
2018-03-19T04:08:25.745Z,99865.48
2018-03-19T04:10:54.876Z,99862.17
2018-03-19T04:13:24.719Z,99869.38
2018-03-19T04:15:53.827Z,99871.69
2018-03-19T04:18:22.910Z,99867.28
2018-03-19T04:20:52.018Z,99861.81
2018-03-19T04:23:21.119Z,99862.17
2018-03-19T04:25:50.202Z,99870.26
2018-03-19T04:28:19.323Z,99864.39
2018-03-19T04:30:48.395Z,99861.35
2018-03-19T04:33:17.504Z,99862.13
2018-03-19T04:35:46.627Z,99864.40
2018-03-19T04:38:15.729Z,99866.94
2018-03-19T04:40:44.830Z,99861.66
2018-03-19T04:43:13.937Z,99867.91
2018-03-19T04:45:43.786Z,99866.13
2018-03-19T04:48:12.886Z,99868.52
2018-03-19T04:50:41.982Z,99867.25
2018-03-19T04:53:11.098Z,99863.47
2018-03-19T04:55:40.193Z,99866.11
2018-03-19T04:58:09.307Z,99865.78
2018-03-19T05:00:38.415Z,99866.81
2018-03-19T05:03:07.517Z,99865.28
2018-03-19T05:05:36.619Z,99871.09
2018-03-19T05:08:06.471Z,99867.34
2018-03-19T05:10:35.576Z,99872.17
2018-03-19T05:13:04.667Z,99875.56
2018-03-19T05:15:33.783Z,99871.81
2018-03-19T05:18:02.879Z,99875.48
2018-03-19T05:20:31.965Z,99876.55
2018-03-19T05:23:01.074Z,99875.17
2018-03-19T05:25:30.167Z,99879.53
2018-03-19T05:27:59.281Z,99877.06
2018-03-19T05:30:28.370Z,99882.38
2018-03-19T05:32:57.477Z,99884.55
2018-03-19T05:35:26.595Z,99873.86
2018-03-19T05:37:56.475Z,99885.52
2018-03-19T05:40:25.602Z,99886.72
2018-03-19T05:42:55.470Z,99891.64
2018-03-19T05:45:24.574Z,99893.31
2018-03-19T05:47:53.682Z,99904.55
2018-03-19T05:50:22.777Z,99903.83
2018-03-19T05:52:51.892Z,99905.27
2018-03-19T05:55:20.980Z,99910.12
2018-03-19T05:57:50.087Z,99924.48
2018-03-19T06:00:19.978Z,99915.94
2018-03-19T06:02:49.081Z,99915.13
2018-03-19T06:05:18.193Z,99919.81
2018-03-19T06:07:47.277Z,99926.23
2018-03-19T06:10:16.399Z,99921.65
2018-03-19T06:12:46.263Z,99924.59
2018-03-19T06:15:15.362Z,99933.30
2018-03-19T06:17:44.452Z,99930.77
2018-03-19T06:20:13.553Z,99927.24
2018-03-19T06:22:42.663Z,99936.42
2018-03-19T06:25:11.796Z,99933.03
2018-03-19T06:27:41.643Z,99937.13
2018-03-19T06:30:10.746Z,99935.38
2018-03-19T06:32:39.848Z,99930.02
2018-03-19T06:35:08.974Z,99932.69
2018-03-19T06:37:38.071Z,99930.98
2018-03-19T06:40:07.936Z,99938.12
2018-03-19T06:42:37.065Z,99941.42
2018-03-19T06:45:06.177Z,99938.13
2018-03-19T06:47:35.288Z,99936.94
2018-03-19T06:50:04.393Z,99935.00
2018-03-19T06:52:34.302Z,99936.95
2018-03-19T06:55:03.408Z,99944.00
2018-03-19T06:57:34.112Z,99946.82
2018-03-19T07:00:03.241Z,99950.19
2018-03-19T07:02:33.086Z,99951.20
2018-03-19T07:05:02.204Z,99948.44
2018-03-19T07:07:32.110Z,99953.59
2018-03-19T07:10:01.203Z,99960.20
2018-03-19T07:12:30.317Z,99958.35
2018-03-19T07:14:59.461Z,99957.96
2018-03-19T07:17:28.560Z,99954.88
2018-03-19T07:19:57.675Z,99959.92
2018-03-19T07:22:26.779Z,99970.37
2018-03-19T07:24:55.882Z,99964.72
2018-03-19T07:27:24.966Z,99962.98
2018-03-19T07:29:54.098Z,99965.03
2018-03-19T07:32:23.201Z,99964.55
2018-03-19T07:34:52.311Z,99974.12
2018-03-19T07:37:22.219Z,99972.66
2018-03-19T07:39:51.311Z,99975.47
2018-03-19T07:42:21.161Z,99974.20
2018-03-19T07:44:50.284Z,99979.91
2018-03-19T07:47:19.378Z,99980.77
2018-03-19T07:49:48.478Z,99967.03
2018-03-19T07:52:18.449Z,99983.82
2018-03-19T07:54:47.572Z,99979.41
2018-03-19T07:57:17.111Z,99976.86
2018-03-19T07:59:46.189Z,99975.52
2018-03-19T08:02:15.300Z,99970.16
2018-03-19T08:04:44.407Z,99977.14
2018-03-19T08:07:13.494Z,99973.67
2018-03-19T08:09:42.623Z,99977.27
2018-03-19T08:12:12.488Z,99975.91
2018-03-19T08:14:41.587Z,99979.69
2018-03-19T08:17:10.678Z,99976.45
2018-03-19T08:19:39.816Z,99979.30
2018-03-19T08:22:08.918Z,99988.52
2018-03-19T08:24:38.799Z,99986.71
2018-03-19T08:27:07.875Z,99987.75
2018-03-19T08:29:36.993Z,99992.61
2018-03-19T08:32:06.115Z,99992.73
2018-03-19T08:34:35.206Z,99996.70
2018-03-19T08:37:05.078Z,99994.20
2018-03-19T08:39:34.246Z,99995.75
2018-03-19T08:42:03.349Z,99996.30
2018-03-19T08:44:33.243Z,99992.39
2018-03-19T08:47:03.145Z,99994.66
2018-03-19T08:49:32.226Z,99988.31
2018-03-19T08:52:01.347Z,99991.25
2018-03-19T08:54:30.418Z,99986.81
2018-03-19T08:56:59.550Z,99982.84
2018-03-19T08:59:29.426Z,99986.22
2018-03-19T09:01:58.533Z,99991.13
2018-03-19T09:04:27.619Z,99987.05
2018-03-19T09:06:56.710Z,99994.98
2018-03-19T09:09:25.816Z,99988.64
2018-03-19T09:11:54.934Z,99994.97
2018-03-19T09:14:24.818Z,99990.53
2018-03-19T09:16:53.925Z,100001.30
2018-03-19T09:19:23.042Z,99986.45
2018-03-19T09:21:52.890Z,99987.50
2018-03-19T09:24:21.988Z,99989.66
2018-03-19T09:26:51.099Z,99993.06
2018-03-19T09:29:20.201Z,99996.13
2018-03-19T09:31:49.350Z,99991.94
2018-03-19T09:34:19.198Z,99991.84
2018-03-19T09:36:48.316Z,99996.48
2018-03-19T09:39:17.393Z,100003.88
2018-03-19T09:41:46.511Z,100000.93
2018-03-19T09:44:15.614Z,100003.58
2018-03-19T09:46:44.702Z,99999.53
2018-03-19T09:49:13.815Z,100004.88
2018-03-19T09:51:42.918Z,100009.28
2018-03-19T09:54:12.826Z,100006.08
2018-03-19T09:56:41.931Z,100011.43
2018-03-19T09:59:11.025Z,100003.91
2018-03-19T10:01:40.154Z,100016.93
2018-03-19T10:04:09.265Z,100009.73
2018-03-19T10:06:38.390Z,100009.44
2018-03-19T10:09:07.497Z,100009.55
2018-03-19T10:11:36.604Z,100013.00
2018-03-19T10:14:06.466Z,100018.09
2018-03-19T10:16:35.578Z,100019.17
2018-03-19T10:19:04.667Z,100011.95
2018-03-19T10:21:33.813Z,100008.98
2018-03-19T10:24:02.910Z,100019.66
2018-03-19T10:26:32.774Z,100017.89
2018-03-19T10:29:01.890Z,100018.12
2018-03-19T10:31:31.042Z,100020.51
2018-03-19T10:34:00.165Z,100020.97
2018-03-19T10:36:29.274Z,100017.17
2018-03-19T10:38:58.405Z,100021.91
2018-03-19T10:41:28.264Z,100018.20
2018-03-19T10:43:57.410Z,100018.54
2018-03-19T10:46:26.501Z,100020.70
2018-03-19T10:48:55.626Z,100020.91
2018-03-19T10:51:25.499Z,100020.06
2018-03-19T10:53:54.609Z,100023.11
2018-03-19T10:56:23.715Z,100021.22
2018-03-19T10:58:52.826Z,100016.53
2018-03-19T11:01:28.300Z,100018.57
2018-03-19T11:04:02.070Z,100021.25
2018-03-19T11:19:59.328Z,100011.95
2018-03-19T11:22:28.368Z,100009.62
2018-03-19T11:24:58.378Z,100012.69
2018-03-19T11:27:27.490Z,100011.49
2018-03-19T11:29:56.618Z,100014.72
2018-03-19T11:32:26.483Z,100009.77
2018-03-19T11:34:55.577Z,100014.73
2018-03-19T11:37:24.684Z,100014.80
2018-03-19T11:39:54.665Z,100013.23
2018-03-19T11:42:23.776Z,100011.73
2018-03-19T11:44:53.642Z,100003.83
2018-03-19T11:47:23.614Z,100008.91
2018-03-19T11:49:52.703Z,100011.55
2018-03-19T11:52:21.777Z,100007.03
2018-03-19T11:54:50.900Z,100005.20
2018-03-19T11:57:20.020Z,100006.58
2018-03-19T11:59:49.122Z,100005.01
2018-03-19T12:02:18.244Z,100013.97
2018-03-19T12:04:48.129Z,100017.80
2018-03-19T12:07:17.226Z,100018.61
2018-03-19T12:09:46.342Z,100012.60
2018-03-19T12:12:15.445Z,100015.14
2018-03-19T12:14:45.305Z,100016.39
2018-03-19T12:17:14.414Z,100009.48
2018-03-19T12:19:43.492Z,100008.91
2018-03-19T12:22:12.611Z,99998.94
2018-03-19T12:24:41.840Z,100015.14
2018-03-19T12:27:10.945Z,100011.05
2018-03-19T12:29:40.832Z,100009.70
2018-03-19T12:32:09.909Z,100013.69
2018-03-19T12:34:39.024Z,100014.39
2018-03-19T12:37:08.126Z,100011.30
2018-03-19T12:39:37.240Z,100015.92
2018-03-19T12:42:07.113Z,100017.69
2018-03-19T12:44:36.223Z,100006.72
2018-03-19T12:47:05.331Z,100010.77
2018-03-19T12:49:34.447Z,100010.00
2018-03-19T12:52:04.335Z,100005.75
2018-03-19T12:54:33.440Z,100008.91
2018-03-19T12:57:02.564Z,100012.22
2018-03-19T12:59:31.669Z,100013.42
2018-03-19T13:02:00.784Z,100014.70
2018-03-19T13:04:29.901Z,100017.55
2018-03-19T13:06:58.994Z,100013.60
2018-03-19T13:09:28.110Z,100013.98
2018-03-19T13:11:57.208Z,100009.88
2018-03-19T13:14:26.310Z,100003.37
2018-03-19T13:16:55.418Z,100002.48
2018-03-19T13:19:24.508Z,100002.27
2018-03-19T13:21:54.384Z,100001.52
2018-03-19T13:24:23.478Z,100002.69
2018-03-19T13:26:52.632Z,100003.28
2018-03-19T13:29:22.517Z,100001.78
2018-03-19T13:31:51.636Z,99994.77
2018-03-19T13:34:21.501Z,99999.45
2018-03-19T13:36:50.635Z,99996.16
2018-03-19T13:39:19.714Z,100005.78
2018-03-19T13:41:48.839Z,100006.03
2018-03-19T13:44:18.703Z,100003.94
2018-03-19T13:46:47.821Z,100005.25
2018-03-19T13:49:16.925Z,100003.14
2018-03-19T13:51:46.044Z,100000.13
2018-03-19T13:54:15.942Z,100008.17
2018-03-19T13:56:45.035Z,100012.58
2018-03-19T13:59:14.155Z,100013.60
2018-03-19T14:01:44.012Z,100019.16
2018-03-19T14:04:13.127Z,100017.75
2018-03-19T14:06:42.206Z,100019.52
2018-03-19T14:09:11.355Z,100006.08
2018-03-19T14:11:41.213Z,100002.30
2018-03-19T14:14:10.321Z,100005.33
2018-03-19T14:16:40.939Z,100011.22
2018-03-19T14:19:10.089Z,100002.53
2018-03-19T14:21:39.950Z,100009.55
2018-03-19T14:24:09.052Z,100014.07
2018-03-19T14:26:38.169Z,100017.69
2018-03-19T14:29:08.042Z,100015.56
2018-03-19T14:31:37.126Z,100008.45
2018-03-19T14:34:06.323Z,100010.15
2018-03-19T14:36:35.381Z,100008.91
2018-03-19T14:39:04.505Z,100009.39
2018-03-19T14:41:33.656Z,100008.83
2018-03-19T14:44:03.529Z,100006.98
2018-03-19T14:46:32.627Z,100003.66
2018-03-19T14:49:01.750Z,100004.52
2018-03-19T14:51:30.874Z,100009.39
2018-03-19T14:54:00.009Z,100008.40
2018-03-19T14:56:29.144Z,100011.26
2018-03-19T14:58:58.273Z,100013.99
2018-03-19T15:01:28.169Z,100012.41
2018-03-19T15:03:58.251Z,100016.66
2018-03-19T15:06:27.376Z,100013.69
2018-03-19T15:08:56.485Z,100004.95
2018-03-19T15:11:25.617Z,100004.56
2018-03-19T15:13:54.739Z,100005.51
2018-03-19T15:16:23.899Z,100006.14
2018-03-19T15:18:53.781Z,100006.14
2018-03-19T15:21:22.893Z,100014.65
2018-03-19T15:23:53.935Z,100012.42
2018-03-19T15:26:23.067Z,100016.66
2018-03-19T15:28:52.182Z,100015.48
2018-03-19T15:31:21.325Z,100017.45
2018-03-19T15:33:50.443Z,100017.50
2018-03-19T15:36:20.307Z,100013.69
2018-03-19T15:38:49.440Z,100010.39
2018-03-19T15:41:18.556Z,100006.30
2018-03-19T15:43:48.854Z,100006.91
2018-03-19T15:46:17.959Z,100011.55
2018-03-19T15:48:47.859Z,100018.61
2018-03-19T15:51:16.970Z,100013.37
2018-03-19T15:53:46.841Z,100019.03
2018-03-19T15:56:15.971Z,100022.55
2018-03-19T15:58:45.090Z,100017.80
2018-03-19T16:01:15.605Z,100027.75
2018-03-19T16:03:44.684Z,100020.17
2018-03-19T16:06:13.811Z,100023.20
2018-03-19T16:08:44.715Z,100032.12
2018-03-19T16:11:13.876Z,100030.27
2018-03-19T16:13:43.894Z,100026.58
2018-03-19T16:16:13.041Z,100026.32
2018-03-19T16:18:42.855Z,100031.69
2018-03-19T16:21:12.015Z,100035.12
2018-03-19T16:23:41.127Z,100029.19
2018-03-19T16:26:12.006Z,100031.82
2018-03-19T16:28:42.737Z,100041.64
2018-03-19T16:31:12.593Z,100045.06
2018-03-19T16:33:42.563Z,100043.20
2018-03-19T16:36:12.432Z,100039.53
2018-03-19T16:38:41.556Z,100036.93
2018-03-19T16:41:12.162Z,100045.67
2018-03-19T16:43:41.294Z,100046.09
2018-03-19T16:46:10.408Z,100045.08
2018-03-19T16:48:40.302Z,100048.86
2018-03-19T16:51:09.395Z,100050.28
2018-03-19T16:53:38.508Z,100054.51
2018-03-19T16:56:08.406Z,100052.56
2018-03-19T16:58:37.500Z,100053.69
2018-03-19T17:01:06.628Z,100058.89
2018-03-19T17:03:35.747Z,100058.75
2018-03-19T17:06:04.921Z,100056.49
2018-03-19T17:08:33.996Z,100065.08
2018-03-19T17:11:03.892Z,100068.42
2018-03-19T17:13:32.999Z,100072.88
2018-03-19T17:16:02.146Z,100067.52
2018-03-19T17:18:31.252Z,100069.22
2018-03-19T17:21:00.424Z,100074.46
2018-03-19T17:23:29.548Z,100084.02
2018-03-19T17:26:00.824Z,100090.37
2018-03-19T17:28:29.937Z,100079.05
2018-03-19T17:30:59.828Z,100086.92
2018-03-19T17:33:28.938Z,100089.05
2018-03-19T17:35:58.055Z,100089.01
2018-03-19T17:38:27.967Z,100097.09
2018-03-19T17:40:57.831Z,100102.16
2018-03-19T17:43:26.981Z,100107.44
2018-03-19T17:45:56.838Z,100109.85
2018-03-19T17:48:25.987Z,100105.64
2018-03-19T17:50:55.918Z,100110.48
2018-03-19T17:53:25.778Z,100110.45
2018-03-19T18:08:44.306Z,100131.63
2018-03-19T18:11:13.447Z,100138.35
2018-03-19T18:13:43.327Z,100137.16
2018-03-19T18:16:12.457Z,100142.72
2018-03-19T18:18:43.235Z,100147.41
2018-03-19T18:21:12.381Z,100143.31
2018-03-19T18:23:41.502Z,100158.10
2018-03-19T18:26:11.386Z,100152.25
2018-03-19T18:28:40.494Z,100158.38
2018-03-19T18:31:09.622Z,100157.35
2018-03-19T18:33:39.637Z,100168.66
2018-03-19T18:36:08.736Z,100161.89
2018-03-19T18:38:37.848Z,100163.77
2018-03-19T18:41:06.957Z,100168.41
2018-03-19T18:43:36.058Z,100174.86
2018-03-19T18:46:05.167Z,100177.34
2018-03-19T18:48:34.296Z,100176.20
2018-03-19T18:51:04.180Z,100175.38
2018-03-19T18:53:34.809Z,100183.59
2018-03-19T18:56:04.675Z,100175.48
2018-03-19T18:58:34.558Z,100175.41
2018-03-19T19:01:03.678Z,100180.18
2018-03-19T19:03:32.814Z,100178.69
2018-03-19T19:06:02.700Z,100185.53
2018-03-19T19:08:31.803Z,100184.88
2018-03-19T19:11:00.920Z,100184.42
2018-03-19T19:13:30.019Z,100181.55
2018-03-19T19:15:59.159Z,100183.97
2018-03-19T19:18:29.027Z,100185.53
2018-03-19T19:20:58.146Z,100184.72
2018-03-19T19:23:27.256Z,100188.10
2018-03-19T19:25:57.144Z,100185.71
2018-03-19T19:28:26.287Z,100196.80
2018-03-19T19:30:56.177Z,100195.55
2018-03-19T19:33:25.287Z,100203.56
2018-03-19T19:35:55.170Z,100203.50
2018-03-19T19:38:24.277Z,100202.18
2018-03-19T19:40:53.411Z,100210.81
2018-03-19T19:43:22.524Z,100206.63
2018-03-19T19:45:51.640Z,100200.48
2018-03-19T19:50:49.024Z,100206.97
2018-03-19T19:53:18.156Z,100210.08
2018-03-19T19:55:48.053Z,100203.97
2018-03-19T19:58:18.562Z,100207.98
2018-03-19T20:00:47.679Z,100210.56
2018-03-19T20:03:16.804Z,100214.98
2018-03-19T20:05:46.699Z,100211.59
2018-03-19T20:08:15.806Z,100207.81
2018-03-19T20:10:45.674Z,100209.91
2018-03-19T20:13:15.535Z,100210.72
2018-03-19T20:15:44.678Z,100213.64
2018-03-19T20:18:13.795Z,100217.94
2018-03-19T20:20:42.928Z,100210.75
2018-03-19T20:23:12.844Z,100214.81
2018-03-19T20:25:42.759Z,100214.03
2018-03-19T20:28:13.349Z,100209.55
2018-03-19T20:30:42.499Z,100216.78
2018-03-19T20:33:11.591Z,100206.92
2018-03-19T20:35:40.713Z,100213.30
2018-03-19T20:38:09.821Z,100220.22
2018-03-19T20:40:38.957Z,100220.72
2018-03-19T20:43:08.065Z,100226.92
2018-03-19T20:45:37.209Z,100225.88
2018-03-19T20:48:06.303Z,100232.41
2018-03-19T20:50:35.454Z,100225.80
2018-03-19T20:53:05.350Z,100227.66
2018-03-19T20:55:34.451Z,100233.00
2018-03-19T20:58:04.414Z,100224.33
2018-03-19T21:00:33.542Z,100229.44
2018-03-19T21:03:02.710Z,100238.86
2018-03-19T21:05:31.811Z,100235.47
2018-03-19T21:08:01.714Z,100239.90
2018-03-19T21:10:30.862Z,100238.48
2018-03-19T21:12:59.967Z,100243.30
2018-03-19T21:15:29.070Z,100241.35
2018-03-19T21:17:58.957Z,100236.44
2018-03-19T21:20:28.071Z,100238.77
2018-03-19T21:22:58.014Z,100243.37
2018-03-19T21:25:27.104Z,100244.89
2018-03-19T21:27:56.214Z,100242.05
2018-03-19T21:30:25.356Z,100239.38
2018-03-19T21:32:54.462Z,100247.26
2018-03-19T21:35:23.564Z,100241.98
2018-03-19T21:37:52.665Z,100240.82
2018-03-19T21:40:22.543Z,100243.02
2018-03-19T21:42:51.627Z,100249.98
2018-03-19T21:45:20.737Z,100253.44
2018-03-19T21:47:49.872Z,100255.38
2018-03-19T21:50:18.982Z,100257.78
2018-03-19T21:52:48.108Z,100255.01
2018-03-19T21:55:17.218Z,100249.71
2018-03-19T21:57:46.346Z,100256.56
2018-03-19T22:00:15.450Z,100257.80
2018-03-19T22:02:45.366Z,100262.08
2018-03-19T22:05:14.442Z,100258.97
2018-03-19T22:07:43.539Z,100256.64
2018-03-19T22:10:12.673Z,100256.34
2018-03-19T22:12:42.526Z,100258.74
2018-03-19T22:15:11.639Z,100259.95
2018-03-19T22:17:40.741Z,100257.87
2018-03-19T22:20:09.842Z,100260.46
2018-03-19T22:22:38.977Z,100262.23
2018-03-19T22:25:08.088Z,100260.41
2018-03-19T22:27:37.192Z,100260.44
2018-03-19T22:30:06.278Z,100265.80
2018-03-19T22:32:35.385Z,100270.14
2018-03-19T22:35:04.511Z,100268.33
2018-03-19T22:37:33.615Z,100273.24
2018-03-19T22:40:02.706Z,100269.93
2018-03-19T22:42:31.815Z,100276.84
2018-03-19T22:45:01.676Z,100279.42
2018-03-19T22:47:30.780Z,100280.73
2018-03-19T22:49:59.881Z,100279.10
2018-03-19T22:52:28.999Z,100279.26
2018-03-19T22:54:58.093Z,100283.05
2018-03-19T22:57:27.182Z,100276.57
2018-03-19T22:59:56.303Z,100276.26
2018-03-19T23:02:25.401Z,100274.98
2018-03-19T23:18:35.213Z,100283.72
2018-03-19T23:21:04.311Z,100285.13
2018-03-19T23:23:33.418Z,100287.97
2018-03-19T23:26:02.535Z,100286.73
2018-03-19T23:28:32.382Z,100286.23
2018-03-19T23:31:01.506Z,100289.59
2018-03-19T23:33:30.635Z,100291.92
2018-03-19T23:35:59.699Z,100284.70
2018-03-19T23:38:28.795Z,100292.47
2018-03-19T23:40:58.664Z,100298.50
2018-03-19T23:43:27.764Z,100293.42
2018-03-19T23:45:56.856Z,100296.07
2018-03-19T23:48:25.943Z,100290.47
2018-03-19T23:50:56.062Z,100285.41
2018-03-19T23:53:25.930Z,100294.63
2018-03-19T23:55:55.051Z,100295.38
2018-03-19T23:58:24.173Z,100287.80
